sensor_id;sensor_type;location;lat;lon;timestamp;P1;durP1;ratioP1;P2;durP2;ratioP2
20792;SDS011;10556;-33.662;151.094;2023-12-07T00:01:28;15.73;;;5.00;;
20792;SDS011;10556;-33.662;151.094;2023-12-07T00:06:31;16.83;;;5.35;;
20792;SDS011;10556;-33.662;151.094;2023-12-07T00:11:34;11.05;;;5.05;;
20792;SDS011;10556;-33.662;151.094;2023-12-07T00:16:38;16.67;;;4.28;;
20792;SDS011;10556;-33.662;151.094;2023-12-07T00:21:41;8.68;;;4.10;;
20792;SDS011;10556;-33.662;151.094;2023-12-07T00:26:44;7.65;;;3.38;;
20792;SDS011;10556;-33.662;151.094;2023-12-07T00:31:49;7.13;;;3.00;;
20792;SDS011;10556;-33.662;151.094;2023-12-07T00:36:52;8.10;;;3.15;;
20792;SDS011;10556;-33.662;151.094;2023-12-07T00:41:54;9.57;;;3.50;;
20792;SDS011;10556;-33.662;151.094;2023-12-07T00:46:59;10.48;;;4.00;;
20792;SDS011;10556;-33.662;151.094;2023-12-07T00:52:02;10.40;;;3.58;;
20792;SDS011;10556;-33.662;151.094;2023-12-07T00:57:05;8.38;;;3.75;;
20792;SDS011;10556;-33.662;151.094;2023-12-07T01:02:10;4.60;;;3.00;;
20792;SDS011;10556;-33.662;151.094;2023-12-07T01:07:13;5.38;;;3.25;;
20792;SDS011;10556;-33.662;151.094;2023-12-07T01:12:15;10.65;;;4.05;;
20792;SDS011;10556;-33.662;151.094;2023-12-07T01:17:20;9.88;;;3.70;;
20792;SDS011;10556;-33.662;151.094;2023-12-07T01:22:23;10.60;;;4.63;;
20792;SDS011;10556;-33.662;151.094;2023-12-07T01:27:26;5.35;;;3.47;;
20792;SDS011;10556;-33.662;151.094;2023-12-07T01:32:31;7.25;;;3.17;;
20792;SDS011;10556;-33.662;151.094;2023-12-07T01:37:34;6.75;;;3.70;;
20792;SDS011;10556;-33.662;151.094;2023-12-07T01:42:37;6.25;;;2.95;;
20792;SDS011;10556;-33.662;151.094;2023-12-07T01:47:42;8.27;;;3.63;;
20792;SDS011;10556;-33.662;151.094;2023-12-07T01:52:47;9.38;;;3.28;;
20792;SDS011;10556;-33.662;151.094;2023-12-07T01:57:51;10.18;;;3.90;;
20792;SDS011;10556;-33.662;151.094;2023-12-07T02:02:56;7.72;;;3.83;;
20792;SDS011;10556;-33.662;151.094;2023-12-07T02:07:59;6.30;;;3.10;;
20792;SDS011;10556;-33.662;151.094;2023-12-07T02:13:02;12.75;;;4.90;;
20792;SDS011;10556;-33.662;151.094;2023-12-07T02:18:10;11.35;;;4.13;;
20792;SDS011;10556;-33.662;151.094;2023-12-07T02:23:16;16.02;;;5.68;;
20792;SDS011;10556;-33.662;151.094;2023-12-07T02:28:22;10.63;;;5.00;;
20792;SDS011;10556;-33.662;151.094;2023-12-07T02:33:25;14.23;;;7.40;;
20792;SDS011;10556;-33.662;151.094;2023-12-07T02:38:28;21.63;;;10.85;;
20792;SDS011;10556;-33.662;151.094;2023-12-07T02:43:33;19.05;;;9.95;;
20792;SDS011;10556;-33.662;151.094;2023-12-07T02:48:36;13.40;;;8.73;;
20792;SDS011;10556;-33.662;151.094;2023-12-07T02:53:39;18.42;;;11.10;;
20792;SDS011;10556;-33.662;151.094;2023-12-07T02:58:44;18.95;;;11.85;;
20792;SDS011;10556;-33.662;151.094;2023-12-07T03:03:47;17.45;;;9.73;;
20792;SDS011;10556;-33.662;151.094;2023-12-07T03:08:49;19.23;;;10.05;;
20792;SDS011;10556;-33.662;151.094;2023-12-07T03:13:54;15.55;;;7.68;;
20792;SDS011;10556;-33.662;151.094;2023-12-07T03:18:57;14.45;;;8.68;;
20792;SDS011;10556;-33.662;151.094;2023-12-07T03:24:01;15.82;;;8.27;;
20792;SDS011;10556;-33.662;151.094;2023-12-07T03:29:06;24.13;;;8.10;;
20792;SDS011;10556;-33.662;151.094;2023-12-07T03:34:09;13.65;;;5.85;;
20792;SDS011;10556;-33.662;151.094;2023-12-07T03:39:12;17.10;;;6.40;;
20792;SDS011;10556;-33.662;151.094;2023-12-07T03:44:17;14.88;;;6.03;;
20792;SDS011;10556;-33.662;151.094;2023-12-07T03:49:20;11.93;;;4.95;;
20792;SDS011;10556;-33.662;151.094;2023-12-07T03:54:23;9.00;;;4.70;;
20792;SDS011;10556;-33.662;151.094;2023-12-07T03:59:27;12.27;;;4.80;;
20792;SDS011;10556;-33.662;151.094;2023-12-07T04:04:30;9.95;;;4.32;;
20792;SDS011;10556;-33.662;151.094;2023-12-07T04:09:33;9.18;;;4.43;;
20792;SDS011;10556;-33.662;151.094;2023-12-07T04:14:38;16.88;;;5.05;;
20792;SDS011;10556;-33.662;151.094;2023-12-07T04:19:41;11.73;;;5.03;;
20792;SDS011;10556;-33.662;151.094;2023-12-07T04:24:44;7.47;;;3.92;;
20792;SDS011;10556;-33.662;151.094;2023-12-07T04:29:48;12.02;;;4.03;;
20792;SDS011;10556;-33.662;151.094;2023-12-07T04:34:51;17.50;;;4.60;;
20792;SDS011;10556;-33.662;151.094;2023-12-07T04:39:54;6.10;;;2.83;;
20792;SDS011;10556;-33.662;151.094;2023-12-07T04:44:59;16.83;;;3.63;;
20792;SDS011;10556;-33.662;151.094;2023-12-07T04:50:02;9.48;;;3.67;;
20792;SDS011;10556;-33.662;151.094;2023-12-07T04:55:05;12.05;;;3.20;;
20792;SDS011;10556;-33.662;151.094;2023-12-07T05:00:11;8.05;;;2.92;;
20792;SDS011;10556;-33.662;151.094;2023-12-07T05:05:14;13.30;;;5.68;;
20792;SDS011;10556;-33.662;151.094;2023-12-07T05:10:17;14.00;;;4.18;;
20792;SDS011;10556;-33.662;151.094;2023-12-07T05:15:21;15.10;;;3.72;;
20792;SDS011;10556;-33.662;151.094;2023-12-07T05:20:24;14.23;;;3.50;;
20792;SDS011;10556;-33.662;151.094;2023-12-07T05:25:27;13.75;;;3.20;;
20792;SDS011;10556;-33.662;151.094;2023-12-07T05:30:32;14.82;;;3.22;;
20792;SDS011;10556;-33.662;151.094;2023-12-07T05:35:35;13.43;;;3.25;;
20792;SDS011;10556;-33.662;151.094;2023-12-07T05:40:37;11.27;;;2.85;;
20792;SDS011;10556;-33.662;151.094;2023-12-07T05:45:42;8.52;;;2.13;;
20792;SDS011;10556;-33.662;151.094;2023-12-07T05:50:45;13.57;;;2.47;;
20792;SDS011;10556;-33.662;151.094;2023-12-07T05:55:48;16.08;;;2.60;;
20792;SDS011;10556;-33.662;151.094;2023-12-07T06:00:52;8.87;;;2.40;;
20792;SDS011;10556;-33.662;151.094;2023-12-07T06:05:55;8.85;;;2.22;;
20792;SDS011;10556;-33.662;151.094;2023-12-07T06:10:58;14.82;;;3.58;;
20792;SDS011;10556;-33.662;151.094;2023-12-07T06:16:03;9.40;;;1.95;;
20792;SDS011;10556;-33.662;151.094;2023-12-07T06:21:06;14.13;;;3.13;;
20792;SDS011;10556;-33.662;151.094;2023-12-07T06:26:09;8.73;;;2.27;;
20792;SDS011;10556;-33.662;151.094;2023-12-07T06:31:14;15.03;;;2.93;;
20792;SDS011;10556;-33.662;151.094;2023-12-07T06:36:19;9.87;;;2.17;;
20792;SDS011;10556;-33.662;151.094;2023-12-07T06:41:22;6.90;;;1.70;;
20792;SDS011;10556;-33.662;151.094;2023-12-07T06:46:27;7.38;;;1.52;;
20792;SDS011;10556;-33.662;151.094;2023-12-07T06:51:30;12.80;;;2.20;;
20792;SDS011;10556;-33.662;151.094;2023-12-07T06:56:33;8.02;;;2.40;;
20792;SDS011;10556;-33.662;151.094;2023-12-07T07:01:38;10.73;;;2.10;;
20792;SDS011;10556;-33.662;151.094;2023-12-07T07:06:41;11.00;;;2.13;;
20792;SDS011;10556;-33.662;151.094;2023-12-07T07:11:47;6.13;;;1.50;;
20792;SDS011;10556;-33.662;151.094;2023-12-07T07:16:51;7.63;;;2.00;;
20792;SDS011;10556;-33.662;151.094;2023-12-07T07:21:54;16.93;;;2.73;;
20792;SDS011;10556;-33.662;151.094;2023-12-07T07:26:57;6.77;;;1.40;;
20792;SDS011;10556;-33.662;151.094;2023-12-07T07:32:02;7.20;;;1.70;;
20792;SDS011;10556;-33.662;151.094;2023-12-07T07:37:06;8.87;;;2.17;;
20792;SDS011;10556;-33.662;151.094;2023-12-07T07:42:09;9.17;;;1.70;;
20792;SDS011;10556;-33.662;151.094;2023-12-07T07:47:13;8.27;;;2.00;;
20792;SDS011;10556;-33.662;151.094;2023-12-07T07:52:16;7.40;;;1.67;;
20792;SDS011;10556;-33.662;151.094;2023-12-07T07:57:19;10.57;;;1.83;;
20792;SDS011;10556;-33.662;151.094;2023-12-07T08:02:24;8.07;;;1.43;;
20792;SDS011;10556;-33.662;151.094;2023-12-07T08:07:27;11.30;;;1.93;;
20792;SDS011;10556;-33.662;151.094;2023-12-07T08:12:29;6.87;;;1.70;;
20792;SDS011;10556;-33.662;151.094;2023-12-07T08:17:34;9.87;;;1.83;;
20792;SDS011;10556;-33.662;151.094;2023-12-07T08:22:37;15.63;;;2.87;;
20792;SDS011;10556;-33.662;151.094;2023-12-07T08:27:40;8.60;;;2.23;;
20792;SDS011;10556;-33.662;151.094;2023-12-07T08:32:45;9.77;;;1.93;;
20792;SDS011;10556;-33.662;151.094;2023-12-07T08:37:48;18.83;;;3.67;;
20792;SDS011;10556;-33.662;151.094;2023-12-07T08:42:50;9.77;;;2.00;;
20792;SDS011;10556;-33.662;151.094;2023-12-07T08:47:57;12.90;;;2.50;;
20792;SDS011;10556;-33.662;151.094;2023-12-07T08:53:00;15.53;;;2.80;;
20792;SDS011;10556;-33.662;151.094;2023-12-07T08:58:03;13.63;;;2.23;;
20792;SDS011;10556;-33.662;151.094;2023-12-07T09:03:08;12.30;;;2.33;;
20792;SDS011;10556;-33.662;151.094;2023-12-07T09:08:11;17.53;;;3.20;;
20792;SDS011;10556;-33.662;151.094;2023-12-07T09:13:14;17.13;;;2.97;;
20792;SDS011;10556;-33.662;151.094;2023-12-07T09:18:19;14.80;;;2.40;;
20792;SDS011;10556;-33.662;151.094;2023-12-07T09:23:22;16.13;;;2.20;;
20792;SDS011;10556;-33.662;151.094;2023-12-07T09:28:24;11.13;;;2.67;;
20792;SDS011;10556;-33.662;151.094;2023-12-07T09:33:29;22.70;;;3.60;;
20792;SDS011;10556;-33.662;151.094;2023-12-07T09:38:32;11.37;;;2.20;;
20792;SDS011;10556;-33.662;151.094;2023-12-07T09:43:36;5.80;;;1.60;;
20792;SDS011;10556;-33.662;151.094;2023-12-07T09:48:42;12.80;;;2.63;;
20792;SDS011;10556;-33.662;151.094;2023-12-07T09:53:45;9.07;;;2.33;;
20792;SDS011;10556;-33.662;151.094;2023-12-07T09:58:52;26.10;;;3.73;;
20792;SDS011;10556;-33.662;151.094;2023-12-07T10:09:20;13.17;;;2.97;;
20792;SDS011;10556;-33.662;151.094;2023-12-07T10:14:23;17.60;;;3.70;;
20792;SDS011;10556;-33.662;151.094;2023-12-07T10:19:28;13.73;;;3.30;;
20792;SDS011;10556;-33.662;151.094;2023-12-07T10:24:31;12.93;;;2.83;;
20792;SDS011;10556;-33.662;151.094;2023-12-07T10:29:35;18.20;;;3.23;;
20792;SDS011;10556;-33.662;151.094;2023-12-07T10:34:40;12.73;;;3.03;;
20792;SDS011;10556;-33.662;151.094;2023-12-07T10:39:43;13.67;;;2.57;;
20792;SDS011;10556;-33.662;151.094;2023-12-07T10:44:46;15.63;;;2.73;;
20792;SDS011;10556;-33.662;151.094;2023-12-07T10:49:57;8.23;;;2.13;;
20792;SDS011;10556;-33.662;151.094;2023-12-07T10:55:03;7.57;;;1.70;;
20792;SDS011;10556;-33.662;151.094;2023-12-07T11:00:10;22.07;;;2.90;;
20792;SDS011;10556;-33.662;151.094;2023-12-07T11:05:16;8.17;;;2.03;;
20792;SDS011;10556;-33.662;151.094;2023-12-07T11:10:20;5.80;;;1.77;;
20792;SDS011;10556;-33.662;151.094;2023-12-07T11:15:26;10.10;;;2.03;;
20792;SDS011;10556;-33.662;151.094;2023-12-07T11:20:39;10.40;;;1.93;;
20792;SDS011;10556;-33.662;151.094;2023-12-07T11:25:43;5.27;;;1.70;;
20792;SDS011;10556;-33.662;151.094;2023-12-07T11:30:46;11.23;;;2.53;;
20792;SDS011;10556;-33.662;151.094;2023-12-07T11:36:06;8.70;;;1.80;;
20792;SDS011;10556;-33.662;151.094;2023-12-07T11:41:10;5.17;;;1.30;;
20792;SDS011;10556;-33.662;151.094;2023-12-07T11:46:12;4.63;;;1.40;;
20792;SDS011;10556;-33.662;151.094;2023-12-07T11:51:17;7.97;;;1.93;;
20792;SDS011;10556;-33.662;151.094;2023-12-07T11:56:20;6.73;;;1.47;;
20792;SDS011;10556;-33.662;151.094;2023-12-07T12:01:25;3.87;;;0.93;;
20792;SDS011;10556;-33.662;151.094;2023-12-07T12:06:29;4.87;;;1.43;;
20792;SDS011;10556;-33.662;151.094;2023-12-07T12:11:32;7.03;;;1.63;;
20792;SDS011;10556;-33.662;151.094;2023-12-07T12:16:35;4.70;;;1.50;;
20792;SDS011;10556;-33.662;151.094;2023-12-07T12:21:40;6.53;;;1.50;;
20792;SDS011;10556;-33.662;151.094;2023-12-07T12:26:43;13.00;;;2.53;;
20792;SDS011;10556;-33.662;151.094;2023-12-07T12:31:47;9.07;;;1.70;;
20792;SDS011;10556;-33.662;151.094;2023-12-07T12:36:51;10.10;;;1.90;;
20792;SDS011;10556;-33.662;151.094;2023-12-07T12:41:58;7.57;;;1.57;;
20792;SDS011;10556;-33.662;151.094;2023-12-07T12:47:01;13.53;;;2.53;;
20792;SDS011;10556;-33.662;151.094;2023-12-07T12:52:06;8.43;;;1.87;;
20792;SDS011;10556;-33.662;151.094;2023-12-07T12:57:12;13.63;;;2.50;;
20792;SDS011;10556;-33.662;151.094;2023-12-07T13:02:15;17.10;;;3.07;;
20792;SDS011;10556;-33.662;151.094;2023-12-07T13:07:19;19.10;;;3.13;;
20792;SDS011;10556;-33.662;151.094;2023-12-07T13:12:26;17.70;;;3.20;;
20792;SDS011;10556;-33.662;151.094;2023-12-07T13:17:28;20.03;;;3.47;;
20792;SDS011;10556;-33.662;151.094;2023-12-07T13:22:33;21.93;;;3.57;;
20792;SDS011;10556;-33.662;151.094;2023-12-07T13:27:36;23.53;;;3.13;;
20792;SDS011;10556;-33.662;151.094;2023-12-07T13:32:39;24.30;;;3.60;;
20792;SDS011;10556;-33.662;151.094;2023-12-07T13:37:44;13.30;;;2.97;;
20792;SDS011;10556;-33.662;151.094;2023-12-07T13:42:47;15.03;;;3.07;;
20792;SDS011;10556;-33.662;151.094;2023-12-07T13:47:49;9.80;;;1.73;;
20792;SDS011;10556;-33.662;151.094;2023-12-07T13:52:55;4.83;;;1.53;;
20792;SDS011;10556;-33.662;151.094;2023-12-07T13:57:57;19.80;;;3.53;;
20792;SDS011;10556;-33.662;151.094;2023-12-07T14:03:00;8.97;;;2.03;;
20792;SDS011;10556;-33.662;151.094;2023-12-07T14:08:05;6.70;;;2.13;;
20792;SDS011;10556;-33.662;151.094;2023-12-07T14:13:08;20.07;;;3.03;;
20792;SDS011;10556;-33.662;151.094;2023-12-07T14:18:11;15.10;;;3.17;;
20792;SDS011;10556;-33.662;151.094;2023-12-07T14:23:16;15.77;;;3.10;;
20792;SDS011;10556;-33.662;151.094;2023-12-07T14:28:19;20.07;;;3.80;;
20792;SDS011;10556;-33.662;151.094;2023-12-07T14:33:22;18.40;;;3.57;;
20792;SDS011;10556;-33.662;151.094;2023-12-07T14:38:26;11.33;;;3.10;;
20792;SDS011;10556;-33.662;151.094;2023-12-07T14:43:29;19.40;;;3.70;;
20792;SDS011;10556;-33.662;151.094;2023-12-07T14:48:32;7.77;;;2.80;;
20792;SDS011;10556;-33.662;151.094;2023-12-07T14:53:37;21.50;;;4.70;;
20792;SDS011;10556;-33.662;151.094;2023-12-07T14:58:40;23.23;;;4.13;;
20792;SDS011;10556;-33.662;151.094;2023-12-07T15:03:42;14.50;;;3.70;;
20792;SDS011;10556;-33.662;151.094;2023-12-07T15:08:47;15.27;;;4.47;;
20792;SDS011;10556;-33.662;151.094;2023-12-07T15:13:50;23.23;;;5.20;;
20792;SDS011;10556;-33.662;151.094;2023-12-07T15:18:53;19.87;;;5.37;;
20792;SDS011;10556;-33.662;151.094;2023-12-07T15:23:58;18.93;;;5.73;;
20792;SDS011;10556;-33.662;151.094;2023-12-07T15:29:01;25.27;;;6.53;;
20792;SDS011;10556;-33.662;151.094;2023-12-07T15:34:04;21.07;;;6.27;;
20792;SDS011;10556;-33.662;151.094;2023-12-07T15:39:09;16.50;;;5.20;;
20792;SDS011;10556;-33.662;151.094;2023-12-07T15:44:11;19.50;;;5.53;;
20792;SDS011;10556;-33.662;151.094;2023-12-07T15:49:14;17.20;;;5.70;;
20792;SDS011;10556;-33.662;151.094;2023-12-07T15:54:19;10.93;;;5.20;;
20792;SDS011;10556;-33.662;151.094;2023-12-07T15:59:22;14.87;;;5.80;;
20792;SDS011;10556;-33.662;151.094;2023-12-07T16:04:25;10.33;;;4.60;;
20792;SDS011;10556;-33.662;151.094;2023-12-07T16:09:29;11.07;;;4.60;;
20792;SDS011;10556;-33.662;151.094;2023-12-07T16:14:32;9.03;;;4.30;;
20792;SDS011;10556;-33.662;151.094;2023-12-07T16:19:35;7.40;;;3.90;;
20792;SDS011;10556;-33.662;151.094;2023-12-07T16:24:40;15.20;;;5.13;;
20792;SDS011;10556;-33.662;151.094;2023-12-07T16:29:43;17.47;;;5.10;;
20792;SDS011;10556;-33.662;151.094;2023-12-07T16:34:46;11.27;;;4.57;;
20792;SDS011;10556;-33.662;151.094;2023-12-07T16:39:51;6.47;;;3.63;;
20792;SDS011;10556;-33.662;151.094;2023-12-07T16:44:54;9.20;;;3.67;;
20792;SDS011;10556;-33.662;151.094;2023-12-07T16:49:57;7.03;;;3.07;;
20792;SDS011;10556;-33.662;151.094;2023-12-07T16:55:02;7.50;;;3.83;;
20792;SDS011;10556;-33.662;151.094;2023-12-07T17:00:05;8.87;;;3.40;;
20792;SDS011;10556;-33.662;151.094;2023-12-07T17:05:09;10.40;;;4.50;;
20792;SDS011;10556;-33.662;151.094;2023-12-07T17:10:14;9.67;;;3.37;;
20792;SDS011;10556;-33.662;151.094;2023-12-07T17:15:17;7.30;;;3.30;;
20792;SDS011;10556;-33.662;151.094;2023-12-07T17:20:20;9.70;;;3.40;;
20792;SDS011;10556;-33.662;151.094;2023-12-07T17:25:24;12.07;;;4.07;;
20792;SDS011;10556;-33.662;151.094;2023-12-07T17:30:27;23.53;;;5.20;;
20792;SDS011;10556;-33.662;151.094;2023-12-07T17:35:30;13.67;;;4.93;;
20792;SDS011;10556;-33.662;151.094;2023-12-07T17:40:35;15.87;;;5.20;;
20792;SDS011;10556;-33.662;151.094;2023-12-07T17:45:39;13.53;;;4.57;;
20792;SDS011;10556;-33.662;151.094;2023-12-07T17:50:42;15.07;;;5.10;;
20792;SDS011;10556;-33.662;151.094;2023-12-07T17:55:47;11.13;;;4.27;;
20792;SDS011;10556;-33.662;151.094;2023-12-07T18:00:49;17.37;;;4.77;;
20792;SDS011;10556;-33.662;151.094;2023-12-07T18:05:53;12.17;;;5.30;;
20792;SDS011;10556;-33.662;151.094;2023-12-07T18:10:58;18.73;;;6.50;;
20792;SDS011;10556;-33.662;151.094;2023-12-07T18:16:01;23.27;;;6.33;;
20792;SDS011;10556;-33.662;151.094;2023-12-07T18:21:05;25.47;;;6.10;;
20792;SDS011;10556;-33.662;151.094;2023-12-07T18:26:10;10.33;;;4.40;;
20792;SDS011;10556;-33.662;151.094;2023-12-07T18:31:13;23.00;;;6.17;;
20792;SDS011;10556;-33.662;151.094;2023-12-07T18:36:16;23.07;;;6.50;;
20792;SDS011;10556;-33.662;151.094;2023-12-07T18:41:21;20.03;;;5.90;;
20792;SDS011;10556;-33.662;151.094;2023-12-07T18:46:23;26.57;;;6.10;;
20792;SDS011;10556;-33.662;151.094;2023-12-07T18:51:28;20.30;;;6.17;;
20792;SDS011;10556;-33.662;151.094;2023-12-07T18:56:33;19.73;;;6.50;;
20792;SDS011;10556;-33.662;151.094;2023-12-07T19:01:36;13.27;;;5.23;;
20792;SDS011;10556;-33.662;151.094;2023-12-07T19:06:39;20.90;;;6.80;;
20792;SDS011;10556;-33.662;151.094;2023-12-07T19:11:43;21.37;;;5.93;;
20792;SDS011;10556;-33.662;151.094;2023-12-07T19:16:46;21.30;;;5.67;;
20792;SDS011;10556;-33.662;151.094;2023-12-07T19:21:49;24.33;;;6.50;;
20792;SDS011;10556;-33.662;151.094;2023-12-07T19:26:54;16.53;;;6.43;;
20792;SDS011;10556;-33.662;151.094;2023-12-07T19:31:57;11.50;;;5.33;;
20792;SDS011;10556;-33.662;151.094;2023-12-07T19:36:59;15.30;;;5.17;;
20792;SDS011;10556;-33.662;151.094;2023-12-07T19:42:04;8.20;;;4.00;;
20792;SDS011;10556;-33.662;151.094;2023-12-07T19:47:07;10.90;;;4.50;;
20792;SDS011;10556;-33.662;151.094;2023-12-07T19:52:10;5.50;;;3.17;;
20792;SDS011;10556;-33.662;151.094;2023-12-07T19:57:15;4.67;;;2.70;;
20792;SDS011;10556;-33.662;151.094;2023-12-07T20:02:18;13.20;;;4.63;;
20792;SDS011;10556;-33.662;151.094;2023-12-07T20:07:21;4.17;;;2.80;;
20792;SDS011;10556;-33.662;151.094;2023-12-07T20:12:26;7.07;;;2.90;;
20792;SDS011;10556;-33.662;151.094;2023-12-07T20:17:28;4.23;;;2.30;;
20792;SDS011;10556;-33.662;151.094;2023-12-07T20:22:31;6.43;;;2.23;;
20792;SDS011;10556;-33.662;151.094;2023-12-07T20:27:36;4.83;;;2.17;;
20792;SDS011;10556;-33.662;151.094;2023-12-07T20:32:39;5.70;;;2.00;;
20792;SDS011;10556;-33.662;151.094;2023-12-07T20:37:41;7.67;;;2.93;;
20792;SDS011;10556;-33.662;151.094;2023-12-07T20:42:46;4.93;;;1.93;;
20792;SDS011;10556;-33.662;151.094;2023-12-07T20:47:49;4.83;;;1.80;;
20792;SDS011;10556;-33.662;151.094;2023-12-07T20:52:52;4.00;;;2.03;;
20792;SDS011;10556;-33.662;151.094;2023-12-07T20:57:57;4.33;;;2.30;;
20792;SDS011;10556;-33.662;151.094;2023-12-07T21:02:59;5.90;;;2.40;;
20792;SDS011;10556;-33.662;151.094;2023-12-07T21:08:02;11.97;;;2.47;;
20792;SDS011;10556;-33.662;151.094;2023-12-07T21:13:07;7.90;;;2.43;;
20792;SDS011;10556;-33.662;151.094;2023-12-07T21:18:10;4.60;;;1.70;;
20792;SDS011;10556;-33.662;151.094;2023-12-07T21:23:13;4.13;;;1.60;;
20792;SDS011;10556;-33.662;151.094;2023-12-07T21:28:18;2.27;;;1.20;;
20792;SDS011;10556;-33.662;151.094;2023-12-07T21:33:20;3.03;;;1.10;;
20792;SDS011;10556;-33.662;151.094;2023-12-07T21:38:23;3.77;;;1.30;;
20792;SDS011;10556;-33.662;151.094;2023-12-07T21:43:28;2.90;;;1.13;;
20792;SDS011;10556;-33.662;151.094;2023-12-07T21:48:31;1.90;;;1.20;;
20792;SDS011;10556;-33.662;151.094;2023-12-07T21:53:34;5.17;;;1.53;;
20792;SDS011;10556;-33.662;151.094;2023-12-07T21:58:38;4.27;;;1.50;;
20792;SDS011;10556;-33.662;151.094;2023-12-07T22:03:41;3.75;;;1.30;;
20792;SDS011;10556;-33.662;151.094;2023-12-07T22:08:44;7.50;;;1.23;;
20792;SDS011;10556;-33.662;151.094;2023-12-07T22:13:49;2.58;;;1.25;;
20792;SDS011;10556;-33.662;151.094;2023-12-07T22:18:52;2.53;;;1.23;;
20792;SDS011;10556;-33.662;151.094;2023-12-07T22:23:54;2.13;;;1.10;;
20792;SDS011;10556;-33.662;151.094;2023-12-07T22:28:59;1.75;;;1.00;;
20792;SDS011;10556;-33.662;151.094;2023-12-07T22:34:02;1.77;;;0.90;;
20792;SDS011;10556;-33.662;151.094;2023-12-07T22:39:05;2.47;;;0.80;;
20792;SDS011;10556;-33.662;151.094;2023-12-07T22:44:10;2.95;;;0.80;;
20792;SDS011;10556;-33.662;151.094;2023-12-07T22:49:13;1.70;;;0.70;;
20792;SDS011;10556;-33.662;151.094;2023-12-07T22:54:16;3.42;;;0.80;;
20792;SDS011;10556;-33.662;151.094;2023-12-07T22:59:21;1.08;;;0.80;;
20792;SDS011;10556;-33.662;151.094;2023-12-07T23:04:24;1.02;;;0.60;;
20792;SDS011;10556;-33.662;151.094;2023-12-07T23:09:27;1.40;;;0.55;;
20792;SDS011;10556;-33.662;151.094;2023-12-07T23:14:31;1.98;;;0.60;;
20792;SDS011;10556;-33.662;151.094;2023-12-07T23:19:34;1.75;;;0.50;;
20792;SDS011;10556;-33.662;151.094;2023-12-07T23:24:37;1.25;;;0.75;;
20792;SDS011;10556;-33.662;151.094;2023-12-07T23:29:42;0.98;;;0.50;;
20792;SDS011;10556;-33.662;151.094;2023-12-07T23:34:44;1.10;;;0.50;;
20792;SDS011;10556;-33.662;151.094;2023-12-07T23:39:47;3.08;;;0.60;;
20792;SDS011;10556;-33.662;151.094;2023-12-07T23:44:52;1.17;;;0.40;;
20792;SDS011;10556;-33.662;151.094;2023-12-07T23:49:55;1.35;;;0.38;;
20792;SDS011;10556;-33.662;151.094;2023-12-07T23:54:58;2.17;;;0.60;;
